sensor_id;sensor_type;location;lat;lon;timestamp;P1;durP1;ratioP1;P2;durP2;ratioP2
1082;SDS011;530;51.448;7.238;2023-11-21T00:01:54;12.40;;;9.10;;
1082;SDS011;530;51.448;7.238;2023-11-21T00:04:20;10.27;;;9.10;;
1082;SDS011;530;51.448;7.238;2023-11-21T00:06:46;11.30;;;9.60;;
1082;SDS011;530;51.448;7.238;2023-11-21T00:09:12;12.90;;;9.20;;
1082;SDS011;530;51.448;7.238;2023-11-21T00:11:40;10.03;;;8.93;;
1082;SDS011;530;51.448;7.238;2023-11-21T00:14:06;12.40;;;8.87;;
1082;SDS011;530;51.448;7.238;2023-11-21T00:16:33;17.43;;;10.30;;
1082;SDS011;530;51.448;7.238;2023-11-21T00:18:59;17.80;;;12.40;;
1082;SDS011;530;51.448;7.238;2023-11-21T00:21:25;12.97;;;11.47;;
1082;SDS011;530;51.448;7.238;2023-11-21T00:23:50;13.27;;;10.60;;
1082;SDS011;530;51.448;7.238;2023-11-21T00:26:16;16.50;;;11.80;;
1082;SDS011;530;51.448;7.238;2023-11-21T00:28:42;16.70;;;11.10;;
1082;SDS011;530;51.448;7.238;2023-11-21T00:31:08;13.63;;;11.23;;
1082;SDS011;530;51.448;7.238;2023-11-21T00:33:34;13.60;;;11.10;;
1082;SDS011;530;51.448;7.238;2023-11-21T00:35:59;20.23;;;11.57;;
1082;SDS011;530;51.448;7.238;2023-11-21T00:38:25;14.43;;;11.33;;
1082;SDS011;530;51.448;7.238;2023-11-21T00:40:52;13.60;;;10.63;;
1082;SDS011;530;51.448;7.238;2023-11-21T00:43:21;13.27;;;10.23;;
1082;SDS011;530;51.448;7.238;2023-11-21T00:45:48;18.23;;;11.97;;
1082;SDS011;530;51.448;7.238;2023-11-21T00:48:16;16.00;;;12.50;;
1082;SDS011;530;51.448;7.238;2023-11-21T00:50:43;16.13;;;11.63;;
1082;SDS011;530;51.448;7.238;2023-11-21T00:53:09;14.40;;;11.10;;
1082;SDS011;530;51.448;7.238;2023-11-21T00:55:36;17.30;;;11.33;;
1082;SDS011;530;51.448;7.238;2023-11-21T00:58:02;16.20;;;11.30;;
1082;SDS011;530;51.448;7.238;2023-11-21T01:00:29;17.40;;;11.20;;
1082;SDS011;530;51.448;7.238;2023-11-21T01:02:55;14.20;;;11.33;;
1082;SDS011;530;51.448;7.238;2023-11-21T01:05:21;15.03;;;11.30;;
1082;SDS011;530;51.448;7.238;2023-11-21T01:07:47;12.00;;;10.20;;
1082;SDS011;530;51.448;7.238;2023-11-21T01:10:12;15.93;;;11.73;;
1082;SDS011;530;51.448;7.238;2023-11-21T01:12:39;18.60;;;12.07;;
1082;SDS011;530;51.448;7.238;2023-11-21T01:15:05;15.07;;;11.67;;
1082;SDS011;530;51.448;7.238;2023-11-21T01:17:34;13.90;;;10.93;;
1082;SDS011;530;51.448;7.238;2023-11-21T01:20:00;13.90;;;9.83;;
1082;SDS011;530;51.448;7.238;2023-11-21T01:22:27;14.20;;;11.43;;
1082;SDS011;530;51.448;7.238;2023-11-21T01:24:53;13.67;;;10.07;;
1082;SDS011;530;51.448;7.238;2023-11-21T01:27:19;15.27;;;10.20;;
1082;SDS011;530;51.448;7.238;2023-11-21T01:29:45;17.90;;;10.70;;
1082;SDS011;530;51.448;7.238;2023-11-21T01:32:11;15.53;;;11.03;;
1082;SDS011;530;51.448;7.238;2023-11-21T01:34:37;12.03;;;9.87;;
1082;SDS011;530;51.448;7.238;2023-11-21T01:37:03;15.90;;;11.17;;
1082;SDS011;530;51.448;7.238;2023-11-21T01:39:30;14.47;;;9.83;;
1082;SDS011;530;51.448;7.238;2023-11-21T01:41:56;16.33;;;11.23;;
1082;SDS011;530;51.448;7.238;2023-11-21T01:44:26;16.13;;;10.63;;
1082;SDS011;530;51.448;7.238;2023-11-21T01:46:52;14.70;;;11.17;;
1082;SDS011;530;51.448;7.238;2023-11-21T01:49:18;13.50;;;10.17;;
1082;SDS011;530;51.448;7.238;2023-11-21T01:51:46;14.23;;;10.10;;
1082;SDS011;530;51.448;7.238;2023-11-21T01:54:14;13.80;;;10.30;;
1082;SDS011;530;51.448;7.238;2023-11-21T01:56:47;13.53;;;10.67;;
1082;SDS011;530;51.448;7.238;2023-11-21T01:59:14;13.57;;;9.80;;
1082;SDS011;530;51.448;7.238;2023-11-21T02:01:43;16.50;;;10.77;;
1082;SDS011;530;51.448;7.238;2023-11-21T02:04:09;13.43;;;10.07;;
1082;SDS011;530;51.448;7.238;2023-11-21T02:06:35;13.17;;;9.40;;
1082;SDS011;530;51.448;7.238;2023-11-21T02:09:00;12.57;;;9.40;;
1082;SDS011;530;51.448;7.238;2023-11-21T02:11:26;13.33;;;11.30;;
1082;SDS011;530;51.448;7.238;2023-11-21T02:13:53;13.10;;;10.67;;
1082;SDS011;530;51.448;7.238;2023-11-21T02:16:19;12.17;;;9.33;;
1082;SDS011;530;51.448;7.238;2023-11-21T02:18:47;12.93;;;9.83;;
1082;SDS011;530;51.448;7.238;2023-11-21T02:21:13;11.90;;;9.70;;
1082;SDS011;530;51.448;7.238;2023-11-21T02:23:39;13.33;;;9.60;;
1082;SDS011;530;51.448;7.238;2023-11-21T02:26:09;11.53;;;9.80;;
1082;SDS011;530;51.448;7.238;2023-11-21T02:28:36;12.23;;;10.00;;
1082;SDS011;530;51.448;7.238;2023-11-21T02:31:04;11.73;;;9.10;;
1082;SDS011;530;51.448;7.238;2023-11-21T02:33:30;13.37;;;10.53;;
1082;SDS011;530;51.448;7.238;2023-11-21T02:35:59;15.20;;;11.57;;
1082;SDS011;530;51.448;7.238;2023-11-21T02:38:25;16.93;;;11.00;;
1082;SDS011;530;51.448;7.238;2023-11-21T02:40:51;12.13;;;10.17;;
1082;SDS011;530;51.448;7.238;2023-11-21T02:43:17;13.97;;;10.97;;
1082;SDS011;530;51.448;7.238;2023-11-21T02:45:42;13.00;;;9.97;;
1082;SDS011;530;51.448;7.238;2023-11-21T02:48:08;14.37;;;10.90;;
1082;SDS011;530;51.448;7.238;2023-11-21T02:50:34;13.60;;;10.37;;
1082;SDS011;530;51.448;7.238;2023-11-21T02:53:00;17.00;;;10.80;;
1082;SDS011;530;51.448;7.238;2023-11-21T02:55:26;12.07;;;9.40;;
1082;SDS011;530;51.448;7.238;2023-11-21T02:57:53;13.07;;;8.90;;
1082;SDS011;530;51.448;7.238;2023-11-21T03:00:21;13.67;;;9.50;;
1082;SDS011;530;51.448;7.238;2023-11-21T03:02:49;13.73;;;9.97;;
1082;SDS011;530;51.448;7.238;2023-11-21T03:05:15;13.17;;;10.10;;
1082;SDS011;530;51.448;7.238;2023-11-21T03:07:40;17.10;;;10.93;;
1082;SDS011;530;51.448;7.238;2023-11-21T03:10:07;15.70;;;10.40;;
1082;SDS011;530;51.448;7.238;2023-11-21T03:12:36;11.63;;;9.40;;
1082;SDS011;530;51.448;7.238;2023-11-21T03:15:03;15.67;;;10.60;;
1082;SDS011;530;51.448;7.238;2023-11-21T03:17:32;13.57;;;10.03;;
1082;SDS011;530;51.448;7.238;2023-11-21T03:19:59;15.60;;;10.00;;
1082;SDS011;530;51.448;7.238;2023-11-21T03:22:25;15.00;;;10.27;;
1082;SDS011;530;51.448;7.238;2023-11-21T03:24:51;17.60;;;10.23;;
1082;SDS011;530;51.448;7.238;2023-11-21T03:27:18;18.33;;;11.23;;
1082;SDS011;530;51.448;7.238;2023-11-21T03:29:44;16.10;;;10.53;;
1082;SDS011;530;51.448;7.238;2023-11-21T03:32:11;16.73;;;11.70;;
1082;SDS011;530;51.448;7.238;2023-11-21T03:34:52;13.50;;;9.73;;
1082;SDS011;530;51.448;7.238;2023-11-21T03:37:21;13.33;;;9.97;;
1082;SDS011;530;51.448;7.238;2023-11-21T03:39:47;14.20;;;10.00;;
1082;SDS011;530;51.448;7.238;2023-11-21T03:42:13;15.30;;;10.50;;
1082;SDS011;530;51.448;7.238;2023-11-21T03:44:39;13.10;;;10.63;;
1082;SDS011;530;51.448;7.238;2023-11-21T03:47:04;13.13;;;10.30;;
1082;SDS011;530;51.448;7.238;2023-11-21T03:49:30;13.10;;;10.13;;
1082;SDS011;530;51.448;7.238;2023-11-21T03:51:56;14.57;;;11.00;;
1082;SDS011;530;51.448;7.238;2023-11-21T03:54:22;13.90;;;10.80;;
1082;SDS011;530;51.448;7.238;2023-11-21T03:56:47;21.30;;;10.53;;
1082;SDS011;530;51.448;7.238;2023-11-21T03:59:13;15.40;;;10.27;;
1082;SDS011;530;51.448;7.238;2023-11-21T04:01:39;13.90;;;10.70;;
1082;SDS011;530;51.448;7.238;2023-11-21T04:04:04;15.97;;;10.70;;
1082;SDS011;530;51.448;7.238;2023-11-21T04:06:30;16.53;;;10.97;;
1082;SDS011;530;51.448;7.238;2023-11-21T04:08:58;20.90;;;11.43;;
1082;SDS011;530;51.448;7.238;2023-11-21T04:11:23;18.77;;;12.23;;
1082;SDS011;530;51.448;7.238;2023-11-21T04:13:49;21.20;;;12.27;;
1082;SDS011;530;51.448;7.238;2023-11-21T04:16:15;22.30;;;11.53;;
1082;SDS011;530;51.448;7.238;2023-11-21T04:18:41;15.27;;;10.70;;
1082;SDS011;530;51.448;7.238;2023-11-21T04:21:07;18.00;;;12.20;;
1082;SDS011;530;51.448;7.238;2023-11-21T04:23:33;14.47;;;10.93;;
1082;SDS011;530;51.448;7.238;2023-11-21T04:26:00;22.17;;;11.10;;
1082;SDS011;530;51.448;7.238;2023-11-21T04:28:27;16.57;;;10.70;;
1082;SDS011;530;51.448;7.238;2023-11-21T04:30:53;15.30;;;10.70;;
1082;SDS011;530;51.448;7.238;2023-11-21T04:33:18;20.30;;;11.40;;
1082;SDS011;530;51.448;7.238;2023-11-21T04:35:44;12.10;;;9.20;;
1082;SDS011;530;51.448;7.238;2023-11-21T04:38:10;13.50;;;9.87;;
1082;SDS011;530;51.448;7.238;2023-11-21T04:40:36;15.00;;;11.13;;
1082;SDS011;530;51.448;7.238;2023-11-21T04:43:01;15.03;;;10.70;;
1082;SDS011;530;51.448;7.238;2023-11-21T04:45:29;12.70;;;10.17;;
1082;SDS011;530;51.448;7.238;2023-11-21T04:47:55;13.50;;;10.70;;
1082;SDS011;530;51.448;7.238;2023-11-21T04:50:21;14.50;;;10.67;;
1082;SDS011;530;51.448;7.238;2023-11-21T04:52:47;15.20;;;10.60;;
1082;SDS011;530;51.448;7.238;2023-11-21T04:55:12;13.63;;;10.03;;
1082;SDS011;530;51.448;7.238;2023-11-21T04:57:38;14.27;;;10.60;;
1082;SDS011;530;51.448;7.238;2023-11-21T05:00:07;15.67;;;10.50;;
1082;SDS011;530;51.448;7.238;2023-11-21T05:02:34;15.03;;;9.70;;
1082;SDS011;530;51.448;7.238;2023-11-21T05:05:00;12.87;;;9.47;;
1082;SDS011;530;51.448;7.238;2023-11-21T05:07:26;13.60;;;9.37;;
1082;SDS011;530;51.448;7.238;2023-11-21T05:09:55;13.50;;;9.87;;
1082;SDS011;530;51.448;7.238;2023-11-21T05:12:24;14.97;;;9.17;;
1082;SDS011;530;51.448;7.238;2023-11-21T05:14:50;12.67;;;9.67;;
1082;SDS011;530;51.448;7.238;2023-11-21T05:17:16;11.40;;;8.63;;
1082;SDS011;530;51.448;7.238;2023-11-21T05:19:42;10.47;;;8.27;;
1082;SDS011;530;51.448;7.238;2023-11-21T05:22:10;13.23;;;9.40;;
1082;SDS011;530;51.448;7.238;2023-11-21T05:24:37;12.67;;;8.93;;
1082;SDS011;530;51.448;7.238;2023-11-21T05:27:04;14.60;;;7.97;;
1082;SDS011;530;51.448;7.238;2023-11-21T05:29:30;11.80;;;8.93;;
1082;SDS011;530;51.448;7.238;2023-11-21T05:31:56;10.10;;;8.40;;
1082;SDS011;530;51.448;7.238;2023-11-21T05:34:22;12.20;;;9.20;;
1082;SDS011;530;51.448;7.238;2023-11-21T05:36:49;13.60;;;9.63;;
1082;SDS011;530;51.448;7.238;2023-11-21T05:39:15;14.67;;;9.73;;
1082;SDS011;530;51.448;7.238;2023-11-21T05:41:44;12.87;;;9.60;;
1082;SDS011;530;51.448;7.238;2023-11-21T05:44:10;16.40;;;10.20;;
1082;SDS011;530;51.448;7.238;2023-11-21T05:46:37;14.67;;;9.00;;
1082;SDS011;530;51.448;7.238;2023-11-21T05:49:03;15.63;;;11.00;;
1082;SDS011;530;51.448;7.238;2023-11-21T05:51:28;17.13;;;10.80;;
1082;SDS011;530;51.448;7.238;2023-11-21T05:53:54;15.97;;;10.40;;
1082;SDS011;530;51.448;7.238;2023-11-21T05:56:20;15.00;;;9.80;;
1082;SDS011;530;51.448;7.238;2023-11-21T05:58:45;15.10;;;9.93;;
1082;SDS011;530;51.448;7.238;2023-11-21T06:01:11;15.93;;;10.37;;
1082;SDS011;530;51.448;7.238;2023-11-21T06:03:38;15.23;;;9.37;;
1082;SDS011;530;51.448;7.238;2023-11-21T06:06:04;16.57;;;10.17;;
1082;SDS011;530;51.448;7.238;2023-11-21T06:08:30;14.80;;;9.30;;
1082;SDS011;530;51.448;7.238;2023-11-21T06:10:55;12.90;;;9.67;;
1082;SDS011;530;51.448;7.238;2023-11-21T06:13:21;20.40;;;10.93;;
1082;SDS011;530;51.448;7.238;2023-11-21T06:15:49;13.63;;;9.70;;
1082;SDS011;530;51.448;7.238;2023-11-21T06:18:18;14.50;;;9.43;;
1082;SDS011;530;51.448;7.238;2023-11-21T06:20:46;14.47;;;10.33;;
1082;SDS011;530;51.448;7.238;2023-11-21T06:23:12;13.70;;;9.60;;
1082;SDS011;530;51.448;7.238;2023-11-21T06:25:39;14.10;;;10.63;;
1082;SDS011;530;51.448;7.238;2023-11-21T06:28:05;13.33;;;9.70;;
1082;SDS011;530;51.448;7.238;2023-11-21T06:30:31;16.87;;;11.13;;
1082;SDS011;530;51.448;7.238;2023-11-21T06:32:57;14.80;;;10.37;;
1082;SDS011;530;51.448;7.238;2023-11-21T06:35:22;16.67;;;11.50;;
1082;SDS011;530;51.448;7.238;2023-11-21T06:37:48;16.23;;;11.10;;
1082;SDS011;530;51.448;7.238;2023-11-21T06:40:14;20.07;;;11.60;;
1082;SDS011;530;51.448;7.238;2023-11-21T06:42:40;18.47;;;11.20;;
1082;SDS011;530;51.448;7.238;2023-11-21T06:45:06;16.13;;;11.23;;
1082;SDS011;530;51.448;7.238;2023-11-21T06:47:33;16.03;;;10.83;;
1082;SDS011;530;51.448;7.238;2023-11-21T06:49:58;14.77;;;10.13;;
1082;SDS011;530;51.448;7.238;2023-11-21T06:52:25;17.63;;;11.50;;
1082;SDS011;530;51.448;7.238;2023-11-21T06:54:51;15.80;;;11.30;;
1082;SDS011;530;51.448;7.238;2023-11-21T06:57:17;19.23;;;11.50;;
1082;SDS011;530;51.448;7.238;2023-11-21T06:59:43;13.83;;;10.60;;
1082;SDS011;530;51.448;7.238;2023-11-21T07:02:09;17.10;;;10.80;;
1082;SDS011;530;51.448;7.238;2023-11-21T07:04:35;15.90;;;11.70;;
1082;SDS011;530;51.448;7.238;2023-11-21T07:07:04;16.50;;;11.10;;
1082;SDS011;530;51.448;7.238;2023-11-21T07:09:32;16.33;;;11.87;;
1082;SDS011;530;51.448;7.238;2023-11-21T07:11:57;17.83;;;11.20;;
1082;SDS011;530;51.448;7.238;2023-11-21T07:14:23;20.60;;;13.00;;
1082;SDS011;530;51.448;7.238;2023-11-21T07:16:49;20.40;;;12.70;;
1082;SDS011;530;51.448;7.238;2023-11-21T07:19:14;20.37;;;12.30;;
1082;SDS011;530;51.448;7.238;2023-11-21T07:21:40;21.07;;;13.87;;
1082;SDS011;530;51.448;7.238;2023-11-21T07:24:06;20.83;;;13.10;;
1082;SDS011;530;51.448;7.238;2023-11-21T07:26:33;19.00;;;13.33;;
1082;SDS011;530;51.448;7.238;2023-11-21T07:29:00;21.77;;;14.67;;
1082;SDS011;530;51.448;7.238;2023-11-21T07:31:26;20.20;;;13.40;;
1082;SDS011;530;51.448;7.238;2023-11-21T07:33:52;21.27;;;12.60;;
1082;SDS011;530;51.448;7.238;2023-11-21T07:36:18;18.60;;;12.00;;
1082;SDS011;530;51.448;7.238;2023-11-21T07:38:45;16.97;;;11.53;;
1082;SDS011;530;51.448;7.238;2023-11-21T07:41:12;15.87;;;10.73;;
1082;SDS011;530;51.448;7.238;2023-11-21T07:43:41;20.10;;;12.43;;
1082;SDS011;530;51.448;7.238;2023-11-21T07:46:07;16.73;;;11.17;;
1082;SDS011;530;51.448;7.238;2023-11-21T07:48:33;18.80;;;11.53;;
1082;SDS011;530;51.448;7.238;2023-11-21T07:51:00;19.60;;;13.37;;
1082;SDS011;530;51.448;7.238;2023-11-21T07:53:28;21.50;;;14.10;;
1082;SDS011;530;51.448;7.238;2023-11-21T07:55:55;16.53;;;12.60;;
1082;SDS011;530;51.448;7.238;2023-11-21T07:58:27;24.30;;;13.30;;
1082;SDS011;530;51.448;7.238;2023-11-21T08:00:53;25.00;;;14.10;;
1082;SDS011;530;51.448;7.238;2023-11-21T08:03:19;23.30;;;13.27;;
1082;SDS011;530;51.448;7.238;2023-11-21T08:05:46;21.43;;;13.30;;
1082;SDS011;530;51.448;7.238;2023-11-21T08:08:12;26.93;;;12.87;;
1082;SDS011;530;51.448;7.238;2023-11-21T08:10:37;20.90;;;12.80;;
1082;SDS011;530;51.448;7.238;2023-11-21T08:13:04;22.87;;;13.60;;
1082;SDS011;530;51.448;7.238;2023-11-21T08:15:31;25.50;;;14.23;;
1082;SDS011;530;51.448;7.238;2023-11-21T08:17:57;28.63;;;13.03;;
1082;SDS011;530;51.448;7.238;2023-11-21T08:20:26;26.07;;;13.13;;
1082;SDS011;530;51.448;7.238;2023-11-21T08:22:52;24.03;;;13.80;;
1082;SDS011;530;51.448;7.238;2023-11-21T08:25:18;24.53;;;14.87;;
1082;SDS011;530;51.448;7.238;2023-11-21T08:27:45;25.80;;;15.97;;
1082;SDS011;530;51.448;7.238;2023-11-21T08:30:11;20.80;;;13.30;;
1082;SDS011;530;51.448;7.238;2023-11-21T08:32:39;28.73;;;13.97;;
1082;SDS011;530;51.448;7.238;2023-11-21T08:35:07;24.77;;;15.60;;
1082;SDS011;530;51.448;7.238;2023-11-21T08:37:33;24.23;;;15.70;;
1082;SDS011;530;51.448;7.238;2023-11-21T08:40:02;23.13;;;14.80;;
1082;SDS011;530;51.448;7.238;2023-11-21T08:42:34;20.70;;;13.60;;
1082;SDS011;530;51.448;7.238;2023-11-21T08:45:00;27.97;;;16.10;;
1082;SDS011;530;51.448;7.238;2023-11-21T08:47:26;33.50;;;16.67;;
1082;SDS011;530;51.448;7.238;2023-11-21T08:49:52;28.83;;;17.27;;
1082;SDS011;530;51.448;7.238;2023-11-21T08:52:18;28.10;;;16.63;;
1082;SDS011;530;51.448;7.238;2023-11-21T08:54:53;36.43;;;18.33;;
1082;SDS011;530;51.448;7.238;2023-11-21T08:57:24;33.67;;;18.80;;
1082;SDS011;530;51.448;7.238;2023-11-21T08:59:50;35.20;;;20.37;;
1082;SDS011;530;51.448;7.238;2023-11-21T09:02:25;34.87;;;20.30;;
1082;SDS011;530;51.448;7.238;2023-11-21T09:04:51;43.40;;;20.83;;
1082;SDS011;530;51.448;7.238;2023-11-21T09:07:18;36.27;;;20.20;;
1082;SDS011;530;51.448;7.238;2023-11-21T09:09:46;37.53;;;20.83;;
1082;SDS011;530;51.448;7.238;2023-11-21T09:12:12;36.77;;;20.23;;
1082;SDS011;530;51.448;7.238;2023-11-21T09:14:38;42.77;;;21.40;;
1082;SDS011;530;51.448;7.238;2023-11-21T09:17:04;48.57;;;23.20;;
1082;SDS011;530;51.448;7.238;2023-11-21T09:19:36;43.20;;;22.10;;
1082;SDS011;530;51.448;7.238;2023-11-21T09:22:05;44.77;;;22.17;;
1082;SDS011;530;51.448;7.238;2023-11-21T09:24:34;46.70;;;24.63;;
1082;SDS011;530;51.448;7.238;2023-11-21T09:26:59;42.57;;;23.03;;
1082;SDS011;530;51.448;7.238;2023-11-21T09:29:26;42.90;;;23.00;;
1082;SDS011;530;51.448;7.238;2023-11-21T09:31:52;47.73;;;24.43;;
1082;SDS011;530;51.448;7.238;2023-11-21T09:34:19;44.13;;;22.97;;
1082;SDS011;530;51.448;7.238;2023-11-21T09:36:48;50.33;;;24.33;;
1082;SDS011;530;51.448;7.238;2023-11-21T09:39:14;43.63;;;22.77;;
1082;SDS011;530;51.448;7.238;2023-11-21T09:41:42;45.73;;;24.10;;
1082;SDS011;530;51.448;7.238;2023-11-21T09:47:35;41.47;;;24.73;;
1082;SDS011;530;51.448;7.238;2023-11-21T09:50:03;45.17;;;23.17;;
1082;SDS011;530;51.448;7.238;2023-11-21T09:52:33;45.53;;;23.97;;
1082;SDS011;530;51.448;7.238;2023-11-21T09:55:06;37.90;;;22.70;;
1082;SDS011;530;51.448;7.238;2023-11-21T09:57:32;46.23;;;25.10;;
1082;SDS011;530;51.448;7.238;2023-11-21T09:59:59;41.83;;;22.23;;
1082;SDS011;530;51.448;7.238;2023-11-21T10:02:29;41.90;;;22.20;;
1082;SDS011;530;51.448;7.238;2023-11-21T10:04:59;46.83;;;23.57;;
1082;SDS011;530;51.448;7.238;2023-11-21T10:07:25;41.87;;;23.27;;
1082;SDS011;530;51.448;7.238;2023-11-21T10:09:51;38.70;;;23.17;;
1082;SDS011;530;51.448;7.238;2023-11-21T10:12:19;41.20;;;23.57;;
1082;SDS011;530;51.448;7.238;2023-11-21T10:14:47;42.90;;;26.13;;
1082;SDS011;530;51.448;7.238;2023-11-21T10:17:14;44.30;;;24.97;;
1082;SDS011;530;51.448;7.238;2023-11-21T10:19:46;42.80;;;22.97;;
1082;SDS011;530;51.448;7.238;2023-11-21T10:22:13;49.87;;;26.80;;
1082;SDS011;530;51.448;7.238;2023-11-21T10:24:42;43.00;;;24.37;;
1082;SDS011;530;51.448;7.238;2023-11-21T10:27:08;47.67;;;25.10;;
1082;SDS011;530;51.448;7.238;2023-11-21T10:29:34;51.13;;;26.00;;
1082;SDS011;530;51.448;7.238;2023-11-21T10:32:04;52.37;;;25.20;;
1082;SDS011;530;51.448;7.238;2023-11-21T10:34:30;49.97;;;25.87;;
1082;SDS011;530;51.448;7.238;2023-11-21T10:36:56;46.70;;;23.70;;
1082;SDS011;530;51.448;7.238;2023-11-21T10:39:23;44.50;;;22.70;;
1082;SDS011;530;51.448;7.238;2023-11-21T10:41:55;47.63;;;24.83;;
1082;SDS011;530;51.448;7.238;2023-11-21T10:44:21;45.73;;;24.87;;
1082;SDS011;530;51.448;7.238;2023-11-21T10:46:52;43.57;;;25.30;;
1082;SDS011;530;51.448;7.238;2023-11-21T10:49:22;46.50;;;25.57;;
1082;SDS011;530;51.448;7.238;2023-11-21T10:51:50;42.87;;;24.80;;
1082;SDS011;530;51.448;7.238;2023-11-21T10:54:19;41.67;;;25.10;;
1082;SDS011;530;51.448;7.238;2023-11-21T10:56:51;42.67;;;24.23;;
1082;SDS011;530;51.448;7.238;2023-11-21T10:59:22;44.53;;;24.67;;
1082;SDS011;530;51.448;7.238;2023-11-21T11:01:50;42.90;;;24.00;;
1082;SDS011;530;51.448;7.238;2023-11-21T11:04:20;49.70;;;26.67;;
1082;SDS011;530;51.448;7.238;2023-11-21T11:07:08;48.53;;;25.07;;
1082;SDS011;530;51.448;7.238;2023-11-21T11:09:37;52.00;;;24.57;;
1082;SDS011;530;51.448;7.238;2023-11-21T11:12:02;49.63;;;26.40;;
1082;SDS011;530;51.448;7.238;2023-11-21T11:14:29;43.77;;;26.27;;
1082;SDS011;530;51.448;7.238;2023-11-21T11:16:57;60.23;;;27.60;;
1082;SDS011;530;51.448;7.238;2023-11-21T11:19:25;52.23;;;27.70;;
1082;SDS011;530;51.448;7.238;2023-11-21T11:22:08;56.07;;;28.17;;
1082;SDS011;530;51.448;7.238;2023-11-21T11:25:00;50.30;;;27.40;;
1082;SDS011;530;51.448;7.238;2023-11-21T11:36:02;56.07;;;27.97;;
1082;SDS011;530;51.448;7.238;2023-11-21T11:38:44;46.07;;;25.77;;
1082;SDS011;530;51.448;7.238;2023-11-21T11:41:11;46.73;;;24.40;;
1082;SDS011;530;51.448;7.238;2023-11-21T11:43:37;52.93;;;25.13;;
1082;SDS011;530;51.448;7.238;2023-11-21T11:46:10;43.60;;;24.77;;
1082;SDS011;530;51.448;7.238;2023-11-21T11:48:40;38.60;;;22.00;;
1082;SDS011;530;51.448;7.238;2023-11-21T11:51:13;51.17;;;25.90;;
1082;SDS011;530;51.448;7.238;2023-11-21T11:53:42;45.97;;;24.90;;
1082;SDS011;530;51.448;7.238;2023-11-21T11:56:30;47.90;;;22.10;;
1082;SDS011;530;51.448;7.238;2023-11-21T11:58:59;44.67;;;24.63;;
1082;SDS011;530;51.448;7.238;2023-11-21T12:01:31;65.23;;;26.47;;
1082;SDS011;530;51.448;7.238;2023-11-21T12:07:02;47.30;;;24.23;;
1082;SDS011;530;51.448;7.238;2023-11-21T12:09:28;44.13;;;25.33;;
1082;SDS011;530;51.448;7.238;2023-11-21T12:11:55;46.73;;;25.67;;
1082;SDS011;530;51.448;7.238;2023-11-21T12:14:21;40.60;;;27.03;;
1082;SDS011;530;51.448;7.238;2023-11-21T12:16:48;43.13;;;25.60;;
1082;SDS011;530;51.448;7.238;2023-11-21T12:19:14;47.93;;;23.47;;
1082;SDS011;530;51.448;7.238;2023-11-21T12:21:40;47.10;;;25.50;;
1082;SDS011;530;51.448;7.238;2023-11-21T12:24:06;40.13;;;24.50;;
1082;SDS011;530;51.448;7.238;2023-11-21T12:26:38;34.00;;;20.80;;
1082;SDS011;530;51.448;7.238;2023-11-21T12:29:07;30.50;;;21.30;;
1082;SDS011;530;51.448;7.238;2023-11-21T12:31:34;32.50;;;20.83;;
1082;SDS011;530;51.448;7.238;2023-11-21T12:34:00;27.00;;;17.80;;
1082;SDS011;530;51.448;7.238;2023-11-21T12:36:26;27.90;;;16.80;;
1082;SDS011;530;51.448;7.238;2023-11-21T12:38:54;24.63;;;17.40;;
1082;SDS011;530;51.448;7.238;2023-11-21T12:41:19;26.53;;;15.73;;
1082;SDS011;530;51.448;7.238;2023-11-21T12:43:46;21.33;;;15.07;;
1082;SDS011;530;51.448;7.238;2023-11-21T12:46:13;21.63;;;14.43;;
1082;SDS011;530;51.448;7.238;2023-11-21T12:48:39;22.50;;;14.20;;
1082;SDS011;530;51.448;7.238;2023-11-21T12:51:10;22.00;;;13.50;;
1082;SDS011;530;51.448;7.238;2023-11-21T12:53:43;23.60;;;14.93;;
1082;SDS011;530;51.448;7.238;2023-11-21T12:56:10;20.43;;;15.30;;
1082;SDS011;530;51.448;7.238;2023-11-21T12:58:37;19.77;;;14.30;;
1082;SDS011;530;51.448;7.238;2023-11-21T13:01:07;20.63;;;13.20;;
1082;SDS011;530;51.448;7.238;2023-11-21T13:03:40;17.70;;;13.60;;
1082;SDS011;530;51.448;7.238;2023-11-21T13:06:07;19.10;;;13.67;;
1082;SDS011;530;51.448;7.238;2023-11-21T13:08:33;16.13;;;12.80;;
1082;SDS011;530;51.448;7.238;2023-11-21T13:10:59;19.10;;;14.03;;
1082;SDS011;530;51.448;7.238;2023-11-21T13:13:26;18.33;;;14.03;;
1082;SDS011;530;51.448;7.238;2023-11-21T13:15:54;19.33;;;14.63;;
1082;SDS011;530;51.448;7.238;2023-11-21T13:18:21;20.67;;;14.40;;
1082;SDS011;530;51.448;7.238;2023-11-21T13:20:52;18.33;;;14.67;;
1082;SDS011;530;51.448;7.238;2023-11-21T13:23:22;17.67;;;12.60;;
1082;SDS011;530;51.448;7.238;2023-11-21T13:25:48;20.10;;;14.50;;
1082;SDS011;530;51.448;7.238;2023-11-21T13:28:15;16.13;;;12.93;;
1082;SDS011;530;51.448;7.238;2023-11-21T13:30:41;19.67;;;14.07;;
1082;SDS011;530;51.448;7.238;2023-11-21T13:33:07;18.70;;;14.50;;
1082;SDS011;530;51.448;7.238;2023-11-21T13:35:35;16.03;;;13.93;;
1082;SDS011;530;51.448;7.238;2023-11-21T13:38:08;16.90;;;13.70;;
1082;SDS011;530;51.448;7.238;2023-11-21T13:40:38;19.37;;;13.97;;
1082;SDS011;530;51.448;7.238;2023-11-21T13:43:15;20.77;;;15.30;;
1082;SDS011;530;51.448;7.238;2023-11-21T13:45:44;19.17;;;13.30;;
1082;SDS011;530;51.448;7.238;2023-11-21T13:48:11;18.80;;;13.60;;
1082;SDS011;530;51.448;7.238;2023-11-21T13:50:56;20.70;;;13.80;;
1082;SDS011;530;51.448;7.238;2023-11-21T13:53:38;15.80;;;11.97;;
1082;SDS011;530;51.448;7.238;2023-11-21T13:56:04;17.97;;;13.30;;
1082;SDS011;530;51.448;7.238;2023-11-21T13:58:30;16.90;;;11.73;;
1082;SDS011;530;51.448;7.238;2023-11-21T14:01:25;18.70;;;13.03;;
1082;SDS011;530;51.448;7.238;2023-11-21T14:03:54;18.50;;;12.00;;
1082;SDS011;530;51.448;7.238;2023-11-21T14:06:33;16.20;;;13.90;;
1082;SDS011;530;51.448;7.238;2023-11-21T14:09:12;15.13;;;12.00;;
1082;SDS011;530;51.448;7.238;2023-11-21T14:11:53;16.80;;;12.13;;
1082;SDS011;530;51.448;7.238;2023-11-21T14:14:22;16.07;;;11.83;;
1082;SDS011;530;51.448;7.238;2023-11-21T14:16:56;18.00;;;12.50;;
1082;SDS011;530;51.448;7.238;2023-11-21T14:19:23;18.53;;;11.70;;
1082;SDS011;530;51.448;7.238;2023-11-21T14:21:52;15.63;;;11.67;;
1082;SDS011;530;51.448;7.238;2023-11-21T14:24:18;16.00;;;10.80;;
1082;SDS011;530;51.448;7.238;2023-11-21T14:26:44;15.20;;;11.13;;
1082;SDS011;530;51.448;7.238;2023-11-21T14:29:14;12.83;;;9.60;;
1082;SDS011;530;51.448;7.238;2023-11-21T14:31:44;16.17;;;10.67;;
1082;SDS011;530;51.448;7.238;2023-11-21T14:34:15;13.90;;;9.93;;
1082;SDS011;530;51.448;7.238;2023-11-21T14:36:40;11.47;;;8.40;;
1082;SDS011;530;51.448;7.238;2023-11-21T14:39:08;13.47;;;8.80;;
1082;SDS011;530;51.448;7.238;2023-11-21T14:41:41;13.30;;;8.67;;
1082;SDS011;530;51.448;7.238;2023-11-21T14:44:09;12.77;;;8.90;;
1082;SDS011;530;51.448;7.238;2023-11-21T14:46:37;12.43;;;8.40;;
1082;SDS011;530;51.448;7.238;2023-11-21T14:49:05;12.30;;;8.07;;
1082;SDS011;530;51.448;7.238;2023-11-21T14:51:57;13.30;;;9.27;;
1082;SDS011;530;51.448;7.238;2023-11-21T14:54:27;12.80;;;8.80;;
1082;SDS011;530;51.448;7.238;2023-11-21T14:57:06;10.30;;;6.97;;
1082;SDS011;530;51.448;7.238;2023-11-21T14:59:36;9.80;;;7.30;;
1082;SDS011;530;51.448;7.238;2023-11-21T15:02:08;10.30;;;7.37;;
1082;SDS011;530;51.448;7.238;2023-11-21T15:04:43;7.20;;;5.40;;
1082;SDS011;530;51.448;7.238;2023-11-21T15:07:09;8.60;;;5.30;;
1082;SDS011;530;51.448;7.238;2023-11-21T15:09:38;6.50;;;4.33;;
1082;SDS011;530;51.448;7.238;2023-11-21T15:12:07;7.17;;;5.20;;
1082;SDS011;530;51.448;7.238;2023-11-21T15:14:46;5.80;;;4.40;;
1082;SDS011;530;51.448;7.238;2023-11-21T15:17:15;5.20;;;4.57;;
1082;SDS011;530;51.448;7.238;2023-11-21T15:19:56;5.87;;;4.60;;
1082;SDS011;530;51.448;7.238;2023-11-21T15:22:22;5.50;;;4.33;;
1082;SDS011;530;51.448;7.238;2023-11-21T15:24:48;8.07;;;5.13;;